Time;durP1;ratioP1;P1;durP2;ratioP2;P2;SDS_P1;SDS_P2;PMS_P1;PMS_P2;Temp;Humidity;BMP_temperature;BMP_pressure;BME280_temperature;BME280_humidity;BME280_pressure;Samples;Min_cycle;Max_cycle;Signal;HPM_P1;HPM_P2
2024/01/17 00:01:08;;;;;;;;;22.50;18.00;;;;;;;;5041855;28;61907;-78
2024/01/17 00:03:33;;;;;;;;;34.00;21.25;;;;;;;;5024334;28;62203;-78
2024/01/17 00:05:58;;;;;;;;;35.50;20.75;;;;;;;;5041803;28;62035;-78
2024/01/17 00:08:23;;;;;;;;;21.25;18.25;;;;;;;;5042152;28;61743;-78
2024/01/17 00:10:48;;;;;;;;;13.25;10.50;;;;;;;;5023823;28;62010;-78
2024/01/17 00:13:14;;;;;;;;;28.50;18.25;;;;;;;;5042229;28;61760;-78
2024/01/17 00:15:40;;;;;;;;;24.25;22.00;;;;;;;;5023383;28;63534;-78
2024/01/17 00:18:05;;;;;;;;;31.00;19.00;;;;;;;;5042065;28;62034;-78
2024/01/17 00:20:30;;;;;;;;;18.00;15.50;;;;;;;;5041786;28;61989;-77
2024/01/17 00:22:55;;;;;;;;;23.50;19.25;;;;;;;;5042482;28;61899;-78
2024/01/17 00:25:21;;;;;;;;;23.25;21.50;;;;;;;;5041085;28;61794;-78
2024/01/17 00:27:49;;;;;;;;;27.50;24.00;;;;;;;;5041681;28;61762;-77
2024/01/17 00:30:14;;;;;;;;;25.50;18.50;;;;;;;;5041424;28;61708;-78
2024/01/17 00:32:39;;;;;;;;;32.00;18.25;;;;;;;;5040373;28;62145;-78
2024/01/17 00:35:05;;;;;;;;;23.75;20.00;;;;;;;;5041292;28;61863;-78
2024/01/17 00:37:30;;;;;;;;;24.50;17.25;;;;;;;;5023656;28;61754;-78
2024/01/17 00:39:55;;;;;;;;;27.75;20.00;;;;;;;;5041070;28;61795;-78
2024/01/17 00:42:20;;;;;;;;;20.00;16.50;;;;;;;;5038275;28;61908;-78
2024/01/17 00:44:46;;;;;;;;;32.00;21.25;;;;;;;;5020567;28;61847;-78
2024/01/17 00:47:12;;;;;;;;;19.00;18.50;;;;;;;;5023226;28;61812;-78
2024/01/17 00:49:38;;;;;;;;;27.50;23.25;;;;;;;;5023376;28;61951;-78
2024/01/17 00:52:03;;;;;;;;;28.00;21.00;;;;;;;;5041672;28;62404;-78
2024/01/17 00:54:29;;;;;;;;;27.25;23.25;;;;;;;;5022966;28;63634;-78
2024/01/17 00:56:54;;;;;;;;;24.00;18.00;;;;;;;;5041217;28;62333;-78
2024/01/17 00:59:19;;;;;;;;;28.75;24.00;;;;;;;;5043862;28;62089;-78
2024/01/17 01:01:44;;;;;;;;;35.00;27.25;;;;;;;;5027053;28;62436;-78
2024/01/17 01:04:10;;;;;;;;;30.75;21.25;;;;;;;;5026344;28;64072;-78
2024/01/17 01:06:35;;;;;;;;;28.50;21.25;;;;;;;;5045147;28;62202;-78
2024/01/17 01:09:00;;;;;;;;;23.50;19.00;;;;;;;;5044646;28;61908;-78
2024/01/17 01:11:29;;;;;;;;;38.50;24.50;;;;;;;;5044795;28;62755;-78
2024/01/17 01:13:55;;;;;;;;;26.00;21.33;;;;;;;;5043542;28;62707;-78
2024/01/17 01:16:20;;;;;;;;;28.00;22.67;;;;;;;;5044828;28;61846;-78
2024/01/17 01:18:45;;;;;;;;;23.75;20.50;;;;;;;;5044950;28;62073;-78
2024/01/17 01:21:10;;;;;;;;;20.50;18.75;;;;;;;;5026555;28;62056;-78
2024/01/17 01:23:35;;;;;;;;;29.33;25.67;;;;;;;;5044543;28;61846;-78
2024/01/17 01:26:01;;;;;;;;;27.33;21.67;;;;;;;;5044260;28;61740;-78
2024/01/17 01:28:26;;;;;;;;;24.50;22.00;;;;;;;;5044745;28;61880;-78
2024/01/17 01:30:51;;;;;;;;;23.75;19.75;;;;;;;;5026339;28;62212;-78
2024/01/17 01:33:16;;;;;;;;;22.75;22.50;;;;;;;;5026766;28;64031;-78
2024/01/17 01:35:41;;;;;;;;;27.50;19.75;;;;;;;;5039265;28;62010;-78
2024/01/17 01:38:07;;;;;;;;;34.50;24.50;;;;;;;;5006465;28;61853;-78
2024/01/17 01:40:32;;;;;;;;;26.25;23.25;;;;;;;;5024462;28;62014;-78
2024/01/17 01:43:00;;;;;;;;;26.50;21.50;;;;;;;;5032363;28;61719;-78
2024/01/17 01:45:25;;;;;;;;;29.50;25.25;;;;;;;;5026450;28;62149;-78
2024/01/17 01:47:50;;;;;;;;;29.25;24.00;;;;;;;;5044076;28;61791;-78
2024/01/17 01:50:16;;;;;;;;;25.50;21.75;;;;;;;;5044567;28;61766;-78
2024/01/17 01:52:42;;;;;;;;;33.75;23.25;;;;;;;;5026015;28;63643;-78
2024/01/17 01:55:09;;;;;;;;;32.75;26.25;;;;;;;;5043968;28;61702;-78
2024/01/17 01:57:36;;;;;;;;;26.00;23.50;;;;;;;;5026387;28;61961;-78
2024/01/17 02:00:04;;;;;;;;;26.00;22.75;;;;;;;;5043702;28;61738;-78
2024/01/17 02:02:30;;;;;;;;;31.50;25.25;;;;;;;;5043762;28;62713;-78
2024/01/17 02:04:55;;;;;;;;;36.50;28.00;;;;;;;;5043779;28;62334;-77
2024/01/17 02:07:21;;;;;;;;;27.00;22.25;;;;;;;;5026372;28;61915;-78
2024/01/17 02:09:47;;;;;;;;;33.00;27.25;;;;;;;;5025843;28;61746;-77
2024/01/17 02:12:12;;;;;;;;;25.25;24.00;;;;;;;;5042625;28;62179;-78
2024/01/17 02:14:39;;;;;;;;;35.00;27.50;;;;;;;;5043805;28;61930;-78
2024/01/17 02:17:05;;;;;;;;;25.00;14.67;;;;;;;;5044026;28;61791;-78
2024/01/17 02:19:30;;;;;;;;;43.00;28.00;;;;;;;;5044228;28;61857;-78
2024/01/17 02:21:55;;;;;;;;;28.50;24.25;;;;;;;;5025100;28;63582;-78
2024/01/17 02:24:22;;;;;;;;;29.67;27.33;;;;;;;;5043889;28;61830;-77
2024/01/17 02:26:48;;;;;;;;;32.67;27.33;;;;;;;;5043631;28;62117;-77
2024/01/17 02:29:13;;;;;;;;;38.50;28.75;;;;;;;;5043615;28;62151;-77
2024/01/17 02:31:38;;;;;;;;;36.00;31.67;;;;;;;;5042877;28;62750;-77
2024/01/17 02:34:04;;;;;;;;;38.25;28.25;;;;;;;;5043126;28;61918;-78
2024/01/17 02:36:29;;;;;;;;;39.00;28.00;;;;;;;;5033485;28;61730;-78
2024/01/17 02:38:54;;;;;;;;;29.50;21.00;;;;;;;;5020923;28;62189;-77
2024/01/17 02:41:20;;;;;;;;;25.33;17.00;;;;;;;;5042246;28;61910;-77
2024/01/17 02:43:45;;;;;;;;;37.25;26.75;;;;;;;;5043312;28;61996;-75
2024/01/17 02:46:10;;;;;;;;;40.67;25.67;;;;;;;;5043370;28;61780;-77
2024/01/17 02:48:35;;;;;;;;;38.75;34.00;;;;;;;;5043515;28;61756;-78
2024/01/17 02:51:00;;;;;;;;;26.75;22.50;;;;;;;;5024796;28;63755;-78
2024/01/17 02:53:26;;;;;;;;;39.00;24.00;;;;;;;;5042970;28;61916;-77
2024/01/17 02:55:51;;;;;;;;;28.50;27.25;;;;;;;;5043149;28;61902;-78
2024/01/17 02:58:16;;;;;;;;;41.00;33.50;;;;;;;;5043465;28;61714;-78
2024/01/17 03:00:43;;;;;;;;;38.75;30.00;;;;;;;;5042363;28;61978;-78
2024/01/17 03:03:09;;;;;;;;;34.75;28.50;;;;;;;;5025247;28;61916;-77
2024/01/17 03:05:37;;;;;;;;;32.33;27.33;;;;;;;;5025259;28;61738;-77
2024/01/17 03:08:02;;;;;;;;;29.67;23.67;;;;;;;;5043013;28;62268;-77
2024/01/17 03:10:27;;;;;;;;;35.50;27.75;;;;;;;;5041396;28;61992;-77
2024/01/17 03:12:52;;;;;;;;;37.75;29.75;;;;;;;;5043209;28;61934;-77
2024/01/17 03:15:17;;;;;;;;;35.75;29.25;;;;;;;;5043000;28;62181;-77
2024/01/17 03:17:43;;;;;;;;;33.25;25.00;;;;;;;;5043335;28;61948;-78
2024/01/17 03:20:10;;;;;;;;;42.33;32.00;;;;;;;;5041534;28;61947;-77
2024/01/17 03:22:36;;;;;;;;;25.33;21.00;;;;;;;;5024420;28;61974;-77
2024/01/17 03:25:01;;;;;;;;;34.75;26.50;;;;;;;;5042885;28;61849;-78
2024/01/17 03:27:26;;;;;;;;;36.50;30.00;;;;;;;;5042859;28;61870;-77
2024/01/17 03:29:52;;;;;;;;;39.75;31.75;;;;;;;;5041608;28;62614;-78
2024/01/17 03:32:17;;;;;;;;;29.50;25.75;;;;;;;;5042684;28;61744;-77
2024/01/17 03:34:42;;;;;;;;;38.25;29.00;;;;;;;;5042099;28;62234;-78
2024/01/17 03:37:08;;;;;;;;;35.00;30.67;;;;;;;;5021739;28;61960;-77
2024/01/17 03:39:33;;;;;;;;;36.00;30.75;;;;;;;;5042073;28;62823;-78
2024/01/17 03:41:59;;;;;;;;;36.33;32.00;;;;;;;;5023219;28;62084;-77
2024/01/17 03:44:24;;;;;;;;;38.00;28.50;;;;;;;;5022789;28;61954;-78
2024/01/17 03:46:49;;;;;;;;;30.75;27.25;;;;;;;;5019105;28;61721;-78
2024/01/17 03:49:15;;;;;;;;;34.00;28.50;;;;;;;;5041549;28;61954;-78
2024/01/17 03:51:40;;;;;;;;;35.75;31.75;;;;;;;;5041882;28;61740;-77
2024/01/17 03:54:06;;;;;;;;;34.25;25.25;;;;;;;;5042570;28;61863;-78
2024/01/17 03:56:31;;;;;;;;;37.75;32.00;;;;;;;;5042335;28;61961;-78
2024/01/17 03:58:56;;;;;;;;;35.00;26.50;;;;;;;;5041994;28;61877;-78
2024/01/17 04:01:21;;;;;;;;;49.33;37.33;;;;;;;;5024167;28;61924;-77
2024/01/17 04:03:46;;;;;;;;;67.33;52.00;;;;;;;;5042136;28;62149;-77
2024/01/17 04:06:12;;;;;;;;;64.33;49.67;;;;;;;;5042249;28;62061;-78
2024/01/17 04:08:38;;;;;;;;;56.33;42.00;;;;;;;;5041610;28;61813;-78
2024/01/17 04:11:03;;;;;;;;;63.33;46.33;;;;;;;;5042005;28;61856;-78
2024/01/17 04:13:29;;;;;;;;;36.25;26.25;;;;;;;;5041939;28;61847;-78
2024/01/17 04:15:54;;;;;;;;;46.50;34.25;;;;;;;;5041615;28;62327;-78
2024/01/17 04:18:19;;;;;;;;;42.50;33.50;;;;;;;;5023078;28;63530;-78
2024/01/17 04:20:44;;;;;;;;;45.50;35.25;;;;;;;;5022984;28;62046;-77
2024/01/17 04:23:10;;;;;;;;;44.50;33.75;;;;;;;;5024112;28;62175;-78
2024/01/17 04:25:35;;;;;;;;;45.00;35.33;;;;;;;;5042154;28;62190;-78
2024/01/17 04:28:04;;;;;;;;;38.00;30.75;;;;;;;;5041055;28;62000;-77
2024/01/17 04:30:30;;;;;;;;;39.25;29.75;;;;;;;;5022136;28;61971;-78
2024/01/17 04:32:55;;;;;;;;;35.25;29.00;;;;;;;;5040420;28;62429;-78
2024/01/17 04:35:20;;;;;;;;;34.00;29.00;;;;;;;;5023046;28;61901;-78
2024/01/17 04:37:46;;;;;;;;;40.25;34.00;;;;;;;;5041089;28;62128;-78
2024/01/17 04:40:12;;;;;;;;;33.00;24.00;;;;;;;;5041392;28;61819;-78
2024/01/17 04:42:37;;;;;;;;;26.50;25.25;;;;;;;;5035576;28;61739;-78
2024/01/17 04:45:03;;;;;;;;;38.00;32.00;;;;;;;;5019907;28;61911;-78
2024/01/17 04:47:28;;;;;;;;;34.50;24.75;;;;;;;;5041049;28;61755;-78
2024/01/17 04:49:53;;;;;;;;;45.50;29.00;;;;;;;;5022841;28;62378;-77
2024/01/17 04:52:19;;;;;;;;;55.50;30.00;;;;;;;;5041889;28;61841;-78
2024/01/17 04:54:44;;;;;;;;;33.25;24.75;;;;;;;;5041611;28;61902;-78
2024/01/17 04:57:10;;;;;;;;;35.75;28.75;;;;;;;;5022661;28;65178;-78
2024/01/17 04:59:35;;;;;;;;;28.25;28.00;;;;;;;;5041433;28;61771;-77
2024/01/17 05:02:00;;;;;;;;;30.75;26.50;;;;;;;;5041468;28;62143;-78
2024/01/17 05:04:26;;;;;;;;;40.75;31.25;;;;;;;;5041522;28;61850;-78
2024/01/17 05:06:51;;;;;;;;;27.75;27.25;;;;;;;;5041308;28;62851;-78
2024/01/17 05:09:17;;;;;;;;;34.00;26.00;;;;;;;;5041185;28;62064;-78
2024/01/17 05:11:42;;;;;;;;;36.00;27.50;;;;;;;;5023276;28;61931;-78
2024/01/17 05:14:08;;;;;;;;;31.50;23.75;;;;;;;;5023540;28;62665;-78
2024/01/17 05:16:33;;;;;;;;;35.00;26.75;;;;;;;;5040690;28;61911;-78
2024/01/17 05:18:58;;;;;;;;;44.75;34.25;;;;;;;;5040324;28;61759;-78
2024/01/17 05:21:23;;;;;;;;;37.00;27.25;;;;;;;;5023360;28;62142;-78
2024/01/17 05:23:48;;;;;;;;;43.33;33.00;;;;;;;;5041312;28;62048;-78
2024/01/17 05:26:14;;;;;;;;;38.67;27.33;;;;;;;;5040270;28;62108;-78
2024/01/17 05:28:39;;;;;;;;;35.75;27.75;;;;;;;;5041127;28;61839;-78
2024/01/17 05:31:04;;;;;;;;;31.50;29.50;;;;;;;;5040106;28;62139;-77
2024/01/17 05:33:29;;;;;;;;;37.33;26.00;;;;;;;;5041173;28;61773;-78
2024/01/17 05:35:55;;;;;;;;;28.25;22.25;;;;;;;;5034416;28;62979;-78
2024/01/17 05:38:20;;;;;;;;;36.25;24.00;;;;;;;;5003369;28;61813;-78
2024/01/17 05:40:46;;;;;;;;;38.00;25.25;;;;;;;;5023536;28;61944;-78
2024/01/17 05:43:11;;;;;;;;;34.00;28.67;;;;;;;;5030218;28;61709;-77
2024/01/17 05:45:36;;;;;;;;;32.00;26.00;;;;;;;;5023963;28;62096;-78
2024/01/17 05:48:02;;;;;;;;;47.75;32.75;;;;;;;;5024313;28;61721;-78
2024/01/17 05:50:27;;;;;;;;;34.50;28.00;;;;;;;;5035275;28;62017;-77
2024/01/17 05:52:52;;;;;;;;;32.75;28.25;;;;;;;;5044689;28;61929;-78
2024/01/17 05:55:20;;;;;;;;;19.75;17.00;;;;;;;;5042941;28;62104;-78
2024/01/17 05:57:45;;;;;;;;;45.33;38.00;;;;;;;;5044491;28;62312;-78
2024/01/17 06:00:11;;;;;;;;;32.25;24.50;;;;;;;;5043706;28;61782;-78
2024/01/17 06:02:37;;;;;;;;;33.25;26.75;;;;;;;;5044358;28;61767;-78
2024/01/17 06:05:02;;;;;;;;;27.75;26.75;;;;;;;;5025527;28;64735;-78
2024/01/17 06:07:27;;;;;;;;;33.50;24.25;;;;;;;;5043915;28;62505;-78
2024/01/17 06:09:52;;;;;;;;;30.67;24.67;;;;;;;;5044017;28;61883;-78
2024/01/17 06:12:18;;;;;;;;;42.25;30.00;;;;;;;;5043591;28;62044;-78
2024/01/17 06:14:43;;;;;;;;;28.00;24.00;;;;;;;;5025628;28;64800;-79
2024/01/17 06:17:08;;;;;;;;;39.50;29.50;;;;;;;;5043325;28;61852;-77
2024/01/17 06:19:33;;;;;;;;;28.00;26.00;;;;;;;;5026042;28;62045;-79
2024/01/17 06:22:00;;;;;;;;;37.50;26.50;;;;;;;;5044652;28;61705;-79
2024/01/17 06:24:26;;;;;;;;;31.75;27.50;;;;;;;;5025282;28;63984;-79
2024/01/17 06:26:51;;;;;;;;;31.00;28.75;;;;;;;;5046571;28;61898;-79
2024/01/17 06:29:17;;;;;;;;;34.25;24.00;;;;;;;;5045151;28;61804;-80
2024/01/17 06:31:42;;;;;;;;;28.50;21.50;;;;;;;;5023550;28;61705;-80
2024/01/17 06:34:07;;;;;;;;;34.75;28.00;;;;;;;;5042157;28;62245;-80
2024/01/17 06:36:33;;;;;;;;;24.25;14.75;;;;;;;;5023978;28;62041;-79
2024/01/17 06:38:59;;;;;;;;;33.00;24.50;;;;;;;;5024129;28;62059;-79
2024/01/17 06:41:25;;;;;;;;;36.25;27.75;;;;;;;;5041963;28;62050;-79
2024/01/17 06:43:50;;;;;;;;;83.67;56.67;;;;;;;;5041294;28;63016;-77
2024/01/17 06:46:17;;;;;;;;;33.50;24.00;;;;;;;;5040982;28;62037;-78
2024/01/17 06:48:43;;;;;;;;;29.25;25.00;;;;;;;;5039761;28;61875;-77
2024/01/17 06:51:09;;;;;;;;;27.25;21.00;;;;;;;;5041551;28;62060;-77
2024/01/17 06:53:34;;;;;;;;;20.75;20.75;;;;;;;;5040515;28;61720;-76
2024/01/17 06:56:00;;;;;;;;;36.00;31.00;;;;;;;;5039646;28;62021;-77
2024/01/17 06:58:25;;;;;;;;;39.00;31.00;;;;;;;;5041126;28;62253;-76
2024/01/17 07:00:50;;;;;;;;;35.25;28.25;;;;;;;;5041067;28;61934;-76
2024/01/17 07:03:15;;;;;;;;;28.75;23.25;;;;;;;;5021823;28;64081;-77
2024/01/17 07:05:41;;;;;;;;;38.75;33.75;;;;;;;;5022974;28;61976;-75
2024/01/17 07:08:06;;;;;;;;;36.75;30.00;;;;;;;;5041432;28;61877;-76
2024/01/17 07:10:32;;;;;;;;;33.50;28.75;;;;;;;;5039806;28;61989;-76
2024/01/17 07:12:57;;;;;;;;;25.00;24.00;;;;;;;;5021535;28;63639;-76
2024/01/17 07:15:22;;;;;;;;;29.75;21.75;;;;;;;;5039932;28;61995;-76
2024/01/17 07:17:48;;;;;;;;;33.75;28.00;;;;;;;;5022938;28;61972;-75
2024/01/17 07:20:13;;;;;;;;;27.50;19.25;;;;;;;;5041680;28;62249;-75
2024/01/17 07:22:42;;;;;;;;;25.75;23.75;;;;;;;;5023417;28;64750;-76
2024/01/17 07:25:16;;;;;;;;;30.00;24.75;;;;;;;;5023833;28;61940;-76
2024/01/17 07:27:45;;;;;;;;;27.50;19.75;;;;;;;;5040126;28;62024;-76
2024/01/17 07:30:11;;;;;;;;;23.25;20.25;;;;;;;;5042136;28;61753;-76
2024/01/17 07:32:36;;;;;;;;;32.25;25.00;;;;;;;;5003983;28;63589;-75
2024/01/17 07:35:02;;;;;;;;;31.50;22.50;;;;;;;;5022992;28;61722;-75
2024/01/17 07:37:28;;;;;;;;;31.25;20.00;;;;;;;;5009498;28;62106;-76
2024/01/17 07:39:53;;;;;;;;;24.25;20.00;;;;;;;;5002788;28;62157;-75
2024/01/17 07:42:18;;;;;;;;;19.00;17.00;;;;;;;;5005511;28;61907;-75
2024/01/17 07:44:47;;;;;;;;;25.00;19.25;;;;;;;;5022273;28;61805;-75
2024/01/17 07:47:12;;;;;;;;;24.50;24.00;;;;;;;;5004484;28;62136;-75
2024/01/17 07:49:38;;;;;;;;;29.00;21.00;;;;;;;;5022790;28;61901;-76
2024/01/17 07:52:04;;;;;;;;;19.75;18.00;;;;;;;;5021216;28;62410;-76
2024/01/17 07:54:30;;;;;;;;;22.25;19.25;;;;;;;;5021148;28;61817;-75
2024/01/17 07:56:55;;;;;;;;;21.25;18.00;;;;;;;;5002370;28;61939;-76
2024/01/17 07:59:20;;;;;;;;;20.75;20.75;;;;;;;;5020435;28;62500;-76
2024/01/17 08:01:46;;;;;;;;;27.00;17.00;;;;;;;;5021263;28;61705;-76
2024/01/17 08:04:11;;;;;;;;;18.00;16.25;;;;;;;;5003562;28;62106;-75
2024/01/17 08:06:37;;;;;;;;;22.75;18.00;;;;;;;;5003840;28;61975;-75
2024/01/17 08:09:02;;;;;;;;;23.50;16.50;;;;;;;;5021407;28;61787;-75
2024/01/17 08:11:27;;;;;;;;;17.50;17.50;;;;;;;;5020935;28;62944;-76
2024/01/17 08:13:52;;;;;;;;;16.25;15.50;;;;;;;;5021588;28;61785;-75
2024/01/17 08:16:18;;;;;;;;;22.00;20.00;;;;;;;;5022219;28;61720;-75
2024/01/17 08:18:43;;;;;;;;;29.00;22.50;;;;;;;;5022536;28;61942;-75
2024/01/17 08:21:08;;;;;;;;;28.50;18.00;;;;;;;;5020338;28;61955;-75
2024/01/17 08:23:34;;;;;;;;;20.00;15.00;;;;;;;;5022232;28;61885;-75
2024/01/17 08:25:59;;;;;;;;;21.25;20.75;;;;;;;;5021074;28;61846;-74
2024/01/17 08:28:25;;;;;;;;;17.25;14.50;;;;;;;;5021939;28;61695;-75
2024/01/17 08:30:50;;;;;;;;;17.75;14.50;;;;;;;;5029731;28;61805;-75
2024/01/17 08:33:16;;;;;;;;;12.00;8.75;;;;;;;;5041994;28;62064;-75
2024/01/17 08:35:42;;;;;;;;;17.75;16.25;;;;;;;;5041725;28;62092;-76
2024/01/17 08:38:07;;;;;;;;;18.75;15.00;;;;;;;;5041564;28;61816;-75
2024/01/17 08:40:33;;;;;;;;;14.75;14.75;;;;;;;;5040759;28;61908;-75
2024/01/17 08:42:58;;;;;;;;;23.50;18.00;;;;;;;;5014091;28;61699;-75
2024/01/17 08:45:24;;;;;;;;;18.50;17.50;;;;;;;;5021911;28;62196;-75
2024/01/17 08:47:49;;;;;;;;;20.75;15.00;;;;;;;;5027388;28;61764;-75
2024/01/17 08:50:14;;;;;;;;;16.00;14.50;;;;;;;;5040208;28;62767;-75
2024/01/17 08:52:40;;;;;;;;;14.00;12.00;;;;;;;;5040761;28;62066;-76
2024/01/17 08:55:08;;;;;;;;;16.75;14.75;;;;;;;;5040164;28;61851;-76
2024/01/17 08:57:34;;;;;;;;;16.75;14.75;;;;;;;;5040257;28;61923;-75
2024/01/17 08:59:59;;;;;;;;;16.75;14.00;;;;;;;;5052268;28;62005;-76
2024/01/17 09:02:29;;;;;;;;;17.50;15.00;;;;;;;;5058403;28;38409;-76
2024/01/17 09:04:54;;;;;;;;;17.50;12.50;;;;;;;;5049740;28;61227;-75
2024/01/17 09:07:19;;;;;;;;;13.25;11.00;;;;;;;;5041253;28;61939;-76
2024/01/17 09:09:45;;;;;;;;;15.25;13.50;;;;;;;;5040153;28;61961;-76
2024/01/17 09:12:15;;;;;;;;;15.50;11.00;;;;;;;;5039466;28;62352;-76
2024/01/17 09:14:43;;;;;;;;;15.00;14.25;;;;;;;;5022796;28;61784;-76
2024/01/17 09:17:08;;;;;;;;;17.75;13.00;;;;;;;;5040591;28;61970;-76
2024/01/17 09:19:33;;;;;;;;;22.75;14.25;;;;;;;;5042549;28;61824;-76
2024/01/17 09:21:58;;;;;;;;;15.00;11.75;;;;;;;;5026202;28;62167;-76
2024/01/17 09:24:24;;;;;;;;;14.75;12.00;;;;;;;;5026364;28;61909;-76
2024/01/17 09:26:51;;;;;;;;;13.50;11.75;;;;;;;;5043866;28;62275;-76
2024/01/17 09:29:16;;;;;;;;;17.50;14.50;;;;;;;;5042707;28;61756;-76
2024/01/17 09:31:42;;;;;;;;;15.50;12.00;;;;;;;;5048223;28;61936;-76
2024/01/17 09:34:07;;;;;;;;;18.25;14.00;;;;;;;;5055535;28;61684;-76
2024/01/17 09:36:32;;;;;;;;;18.75;14.00;;;;;;;;5023083;28;61749;-76
2024/01/17 09:38:57;;;;;;;;;16.75;11.75;;;;;;;;5023645;28;62329;-76
2024/01/17 09:41:23;;;;;;;;;18.00;12.00;;;;;;;;5025628;28;61722;-76
2024/01/17 09:43:48;;;;;;;;;16.00;11.50;;;;;;;;5025924;28;61902;-75
2024/01/17 09:46:14;;;;;;;;;15.00;13.25;;;;;;;;5026186;28;62026;-76
2024/01/17 09:48:40;;;;;;;;;18.25;15.75;;;;;;;;5043539;28;61858;-76
2024/01/17 09:51:05;;;;;;;;;15.25;13.25;;;;;;;;5043951;28;61862;-76
2024/01/17 09:53:31;;;;;;;;;16.50;12.75;;;;;;;;5043460;28;61999;-76
2024/01/17 09:56:01;;;;;;;;;18.50;15.50;;;;;;;;5025269;28;62327;-76
2024/01/17 09:58:30;;;;;;;;;17.25;15.00;;;;;;;;5043086;28;61911;-76
2024/01/17 10:00:57;;;;;;;;;17.50;15.75;;;;;;;;5043351;28;61764;-76
2024/01/17 10:03:23;;;;;;;;;19.25;14.75;;;;;;;;5025124;28;61932;-76
2024/01/17 10:05:50;;;;;;;;;13.50;12.50;;;;;;;;5025283;28;61789;-76
2024/01/17 10:08:17;;;;;;;;;17.75;14.75;;;;;;;;5042771;28;62860;-75
2024/01/17 10:10:43;;;;;;;;;18.50;11.75;;;;;;;;5022584;28;61880;-76
2024/01/17 10:13:08;;;;;;;;;15.50;14.00;;;;;;;;5036911;28;61823;-76
2024/01/17 10:15:33;;;;;;;;;12.00;11.25;;;;;;;;5043216;28;61867;-76
2024/01/17 10:18:00;;;;;;;;;11.75;11.75;;;;;;;;5042178;28;61974;-76
2024/01/17 10:20:25;;;;;;;;;19.75;17.00;;;;;;;;5042506;28;61744;-76
2024/01/17 10:22:51;;;;;;;;;26.25;21.75;;;;;;;;5042784;28;61948;-76
2024/01/17 10:25:17;;;;;;;;;22.25;18.50;;;;;;;;5042755;28;61815;-76
2024/01/17 10:27:42;;;;;;;;;26.25;20.00;;;;;;;;5042410;28;61997;-76
2024/01/17 10:30:09;;;;;;;;;16.00;15.50;;;;;;;;5023019;28;62015;-76
2024/01/17 10:32:35;;;;;;;;;21.00;17.00;;;;;;;;5049727;28;61851;-76
2024/01/17 10:35:03;;;;;;;;;23.25;16.25;;;;;;;;5024791;28;61920;-76
2024/01/17 10:37:28;;;;;;;;;13.50;13.25;;;;;;;;5029333;28;64701;-76
2024/01/17 10:40:12;;;;;;;;;20.00;15.50;;;;;;;;5042678;28;61834;-76
2024/01/17 10:42:40;;;;;;;;;30.75;25.00;;;;;;;;5042706;28;61841;-76
2024/01/17 10:45:06;;;;;;;;;28.75;21.00;;;;;;;;5025457;28;62125;-76
2024/01/17 10:47:31;;;;;;;;;26.00;19.75;;;;;;;;5024422;28;63429;-76
2024/01/17 10:49:56;;;;;;;;;36.50;24.75;;;;;;;;5023875;28;62148;-76
2024/01/17 10:52:24;;;;;;;;;30.00;24.25;;;;;;;;5041735;28;61897;-76
2024/01/17 10:54:50;;;;;;;;;20.75;16.75;;;;;;;;5043110;28;61736;-76
2024/01/17 10:57:18;;;;;;;;;28.25;22.75;;;;;;;;5023537;28;63730;-76
2024/01/17 10:59:47;;;;;;;;;22.75;16.75;;;;;;;;5041978;28;61877;-76
2024/01/17 11:02:22;;;;;;;;;30.75;26.00;;;;;;;;5042689;28;61718;-77
2024/01/17 11:05:05;;;;;;;;;29.50;26.00;;;;;;;;5042492;28;61968;-76
2024/01/17 11:07:31;;;;;;;;;19.50;17.75;;;;;;;;5040741;28;63516;-76
2024/01/17 11:09:58;;;;;;;;;22.75;18.75;;;;;;;;5041370;28;62197;-76
2024/01/17 11:12:24;;;;;;;;;23.00;18.75;;;;;;;;5041755;28;61822;-76
2024/01/17 11:14:51;;;;;;;;;22.75;20.00;;;;;;;;5042348;28;61680;-76
2024/01/17 11:17:18;;;;;;;;;28.75;17.75;;;;;;;;5023629;28;63626;-75
2024/01/17 11:19:44;;;;;;;;;31.00;23.50;;;;;;;;5041820;28;61800;-74
2024/01/17 11:22:11;;;;;;;;;25.75;21.25;;;;;;;;5023748;28;61931;-76
2024/01/17 11:24:43;;;;;;;;;24.75;19.75;;;;;;;;5023994;28;61860;-76
2024/01/17 11:27:21;;;;;;;;;29.50;23.00;;;;;;;;5038479;28;63278;-76
2024/01/17 11:29:52;;;;;;;;;32.00;22.75;;;;;;;;5041016;28;62233;-76
2024/01/17 11:32:20;;;;;;;;;31.50;21.75;;;;;;;;5042523;28;61850;-76
2024/01/17 11:34:49;;;;;;;;;28.25;21.25;;;;;;;;5041936;28;61899;-76
2024/01/17 11:37:43;;;;;;;;;24.50;19.50;;;;;;;;5041105;28;61863;-76
2024/01/17 11:40:09;;;;;;;;;29.75;26.00;;;;;;;;5020460;28;61980;-77
2024/01/17 11:42:35;;;;;;;;;25.00;21.00;;;;;;;;5039982;28;62011;-76
2024/01/17 11:45:02;;;;;;;;;48.75;41.75;;;;;;;;5023808;28;62404;-76
2024/01/17 11:47:27;;;;;;;;;39.25;32.25;;;;;;;;5040936;28;62517;-76
2024/01/17 11:49:54;;;;;;;;;29.00;24.00;;;;;;;;5043276;28;62088;-75
2024/01/17 11:52:33;;;;;;;;;30.50;23.25;;;;;;;;5042076;28;61829;-76
2024/01/17 11:54:59;;;;;;;;;18.00;16.00;;;;;;;;5041606;28;61756;-77
2024/01/17 11:57:25;;;;;;;;;19.50;15.00;;;;;;;;5040714;28;61942;-77
2024/01/17 12:00:10;;;;;;;;;26.50;20.00;;;;;;;;5039002;28;62045;-76
2024/01/17 12:02:39;;;;;;;;;20.75;15.25;;;;;;;;5039936;28;62066;-79
2024/01/17 12:05:06;;;;;;;;;30.25;23.00;;;;;;;;5022315;28;61705;-79
2024/01/17 12:07:36;;;;;;;;;22.50;17.25;;;;;;;;5040560;28;61849;-79
2024/01/17 12:10:06;;;;;;;;;15.50;14.00;;;;;;;;5019748;28;61989;-78
2024/01/17 12:12:31;;;;;;;;;19.50;17.50;;;;;;;;5024266;28;62229;-79
2024/01/17 12:14:56;;;;;;;;;17.75;17.25;;;;;;;;5040875;28;62248;-78
2024/01/17 12:17:21;;;;;;;;;20.50;20.50;;;;;;;;5040129;28;61862;-79
2024/01/17 12:19:47;;;;;;;;;21.75;20.00;;;;;;;;5040269;28;62087;-77
2024/01/17 12:22:13;;;;;;;;;24.25;22.75;;;;;;;;5023388;28;61935;-78
2024/01/17 12:24:40;;;;;;;;;27.00;21.75;;;;;;;;5040800;28;61894;-75
2024/01/17 12:27:06;;;;;;;;;23.75;22.75;;;;;;;;5021092;28;63510;-76
2024/01/17 12:29:31;;;;;;;;;74.67;57.33;;;;;;;;5039905;28;62050;-75
2024/01/17 12:31:56;;;;;;;;;24.75;17.25;;;;;;;;5042085;28;61756;-76
2024/01/17 12:34:21;;;;;;;;;23.75;22.75;;;;;;;;5022875;28;61736;-76
2024/01/17 12:36:47;;;;;;;;;25.25;19.50;;;;;;;;5038983;28;62671;-76
2024/01/17 12:39:12;;;;;;;;;12.00;11.00;;;;;;;;5039635;28;61875;-76
2024/01/17 12:41:38;;;;;;;;;14.75;13.00;;;;;;;;5039201;28;61978;-75
2024/01/17 12:44:05;;;;;;;;;16.00;13.50;;;;;;;;5038718;28;62170;-76
2024/01/17 12:46:32;;;;;;;;;23.50;19.25;;;;;;;;5021158;28;64052;-76
2024/01/17 12:48:58;;;;;;;;;24.50;16.50;;;;;;;;5021541;28;62248;-76
2024/01/17 12:51:24;;;;;;;;;20.50;17.50;;;;;;;;5039358;28;62073;-76
2024/01/17 12:53:50;;;;;;;;;23.25;17.75;;;;;;;;5038931;28;61903;-76
2024/01/17 12:56:16;;;;;;;;;16.25;14.50;;;;;;;;5039193;28;62049;-76
2024/01/17 12:58:41;;;;;;;;;18.75;13.25;;;;;;;;5038985;28;61931;-76
2024/01/17 13:01:06;;;;;;;;;16.75;15.75;;;;;;;;5022238;28;61786;-76
2024/01/17 13:03:32;;;;;;;;;21.25;16.00;;;;;;;;5039822;28;61966;-77
2024/01/17 13:06:01;;;;;;;;;20.00;17.25;;;;;;;;5019208;28;63932;-76
2024/01/17 13:08:26;;;;;;;;;21.25;19.75;;;;;;;;5021871;28;62293;-76
2024/01/17 13:10:54;;;;;;;;;31.50;22.75;;;;;;;;5039233;28;62097;-77
2024/01/17 13:13:20;;;;;;;;;30.75;26.75;;;;;;;;5021795;28;62600;-76
2024/01/17 13:15:49;;;;;;;;;42.75;31.00;;;;;;;;5039658;28;62375;-76
2024/01/17 13:18:15;;;;;;;;;31.50;29.75;;;;;;;;5021691;28;62091;-76
2024/01/17 13:20:40;;;;;;;;;25.75;21.00;;;;;;;;5040266;28;61875;-76
2024/01/17 13:23:06;;;;;;;;;28.00;23.00;;;;;;;;5040300;28;61756;-76
2024/01/17 13:25:31;;;;;;;;;23.50;21.25;;;;;;;;5039594;28;62666;-76
2024/01/17 13:27:58;;;;;;;;;18.75;16.75;;;;;;;;5020823;28;62014;-76
2024/01/17 13:30:24;;;;;;;;;29.25;19.50;;;;;;;;5017040;28;61943;-76
2024/01/17 13:32:49;;;;;;;;;23.75;18.25;;;;;;;;5017055;28;62078;-77
2024/01/17 13:35:16;;;;;;;;;30.25;23.50;;;;;;;;5018496;28;62078;-76
2024/01/17 13:37:49;;;;;;;;;22.25;18.25;;;;;;;;5018118;28;61916;-76
2024/01/17 13:40:18;;;;;;;;;37.50;25.50;;;;;;;;5018803;28;61976;-76
2024/01/17 13:42:43;;;;;;;;;30.75;23.50;;;;;;;;5017541;28;61941;-76
2024/01/17 13:45:10;;;;;;;;;11.25;11.25;;;;;;;;5017597;28;63405;-76
2024/01/17 13:47:37;;;;;;;;;24.50;21.25;;;;;;;;5019031;28;61793;-77
2024/01/17 13:50:13;;;;;;;;;28.75;21.00;;;;;;;;5017242;28;61834;-77
2024/01/17 13:52:43;;;;;;;;;5.00;4.00;;;;;;;;5017497;28;62207;-77
2024/01/17 13:55:08;;;;;;;;;23.25;19.00;;;;;;;;5019441;28;63074;-77
2024/01/17 13:57:33;;;;;;;;;25.75;17.00;;;;;;;;5017742;28;62219;-77
2024/01/17 13:59:58;;;;;;;;;31.25;24.25;;;;;;;;5019044;28;61966;-77
2024/01/17 14:02:24;;;;;;;;;30.75;23.75;;;;;;;;5019235;28;61810;-77
2024/01/17 14:04:49;;;;;;;;;21.25;18.25;;;;;;;;5017386;28;63793;-77
2024/01/17 14:07:14;;;;;;;;;24.00;19.50;;;;;;;;5020758;28;61997;-77
2024/01/17 14:09:40;;;;;;;;;35.00;29.50;;;;;;;;5021818;28;61817;-77